sensor_id;sensor_type;location;lat;lon;timestamp;temperature;humidity
4279;DHT22;2153;47.744;10.580;2023-08-24T00:00:21;18.50;99.90
4279;DHT22;2153;47.744;10.580;2023-08-24T00:02:48;18.50;99.90
4279;DHT22;2153;47.744;10.580;2023-08-24T00:05:15;18.50;99.90
4279;DHT22;2153;47.744;10.580;2023-08-24T00:07:42;18.40;99.90
4279;DHT22;2153;47.744;10.580;2023-08-24T00:10:09;18.40;99.90
4279;DHT22;2153;47.744;10.580;2023-08-24T00:12:35;18.40;99.90
4279;DHT22;2153;47.744;10.580;2023-08-24T00:15:04;18.50;99.90
4279;DHT22;2153;47.744;10.580;2023-08-24T00:17:31;18.40;99.90
4279;DHT22;2153;47.744;10.580;2023-08-24T00:19:58;18.40;99.90
4279;DHT22;2153;47.744;10.580;2023-08-24T00:22:24;18.20;99.90
4279;DHT22;2153;47.744;10.580;2023-08-24T00:24:51;18.10;99.90
4279;DHT22;2153;47.744;10.580;2023-08-24T00:27:18;17.90;99.90
4279;DHT22;2153;47.744;10.580;2023-08-24T00:29:45;17.90;99.90
4279;DHT22;2153;47.744;10.580;2023-08-24T00:32:13;17.90;99.90
4279;DHT22;2153;47.744;10.580;2023-08-24T00:34:39;18.00;99.90
4279;DHT22;2153;47.744;10.580;2023-08-24T00:37:06;18.00;99.90
4279;DHT22;2153;47.744;10.580;2023-08-24T00:39:33;18.00;99.90
4279;DHT22;2153;47.744;10.580;2023-08-24T00:42:00;18.00;99.90
4279;DHT22;2153;47.744;10.580;2023-08-24T00:44:27;18.00;99.90
4279;DHT22;2153;47.744;10.580;2023-08-24T00:46:53;18.00;99.90
4279;DHT22;2153;47.744;10.580;2023-08-24T00:49:22;17.90;99.90
4279;DHT22;2153;47.744;10.580;2023-08-24T00:51:49;17.80;99.90
4279;DHT22;2153;47.744;10.580;2023-08-24T00:54:16;17.70;99.90
4279;DHT22;2153;47.744;10.580;2023-08-24T00:56:43;17.70;99.90
4279;DHT22;2153;47.744;10.580;2023-08-24T00:59:10;17.60;99.90
4279;DHT22;2153;47.744;10.580;2023-08-24T01:01:39;17.60;99.90
4279;DHT22;2153;47.744;10.580;2023-08-24T01:04:07;17.60;99.90
4279;DHT22;2153;47.744;10.580;2023-08-24T01:06:37;17.60;99.90
4279;DHT22;2153;47.744;10.580;2023-08-24T01:09:04;17.60;99.90
4279;DHT22;2153;47.744;10.580;2023-08-24T01:11:41;17.60;99.90
4279;DHT22;2153;47.744;10.580;2023-08-24T01:14:15;17.60;99.90
4279;DHT22;2153;47.744;10.580;2023-08-24T01:16:46;17.50;99.90
4279;DHT22;2153;47.744;10.580;2023-08-24T01:19:24;17.50;99.90
4279;DHT22;2153;47.744;10.580;2023-08-24T01:21:55;17.50;99.90
4279;DHT22;2153;47.744;10.580;2023-08-24T01:24:31;17.50;99.90
4279;DHT22;2153;47.744;10.580;2023-08-24T01:27:00;17.50;99.90
4279;DHT22;2153;47.744;10.580;2023-08-24T01:29:28;17.50;99.90
4279;DHT22;2153;47.744;10.580;2023-08-24T01:31:55;17.50;99.90
4279;DHT22;2153;47.744;10.580;2023-08-24T01:34:22;17.40;99.90
4279;DHT22;2153;47.744;10.580;2023-08-24T01:36:48;17.40;99.90
4279;DHT22;2153;47.744;10.580;2023-08-24T01:39:28;17.40;99.90
4279;DHT22;2153;47.744;10.580;2023-08-24T01:42:02;17.40;99.90
4279;DHT22;2153;47.744;10.580;2023-08-24T01:44:33;17.30;99.90
4279;DHT22;2153;47.744;10.580;2023-08-24T01:47:02;17.20;99.90
4279;DHT22;2153;47.744;10.580;2023-08-24T01:49:30;17.20;99.90
4279;DHT22;2153;47.744;10.580;2023-08-24T01:51:58;17.10;99.90
4279;DHT22;2153;47.744;10.580;2023-08-24T01:54:25;17.10;99.90
4279;DHT22;2153;47.744;10.580;2023-08-24T01:56:52;17.00;99.90
4279;DHT22;2153;47.744;10.580;2023-08-24T01:59:20;16.80;99.90
4279;DHT22;2153;47.744;10.580;2023-08-24T02:01:47;16.80;99.90
4279;DHT22;2153;47.744;10.580;2023-08-24T02:04:13;16.80;99.90
4279;DHT22;2153;47.744;10.580;2023-08-24T02:06:40;16.80;99.90
4279;DHT22;2153;47.744;10.580;2023-08-24T02:09:07;16.80;99.90
4279;DHT22;2153;47.744;10.580;2023-08-24T02:11:33;16.80;99.90
4279;DHT22;2153;47.744;10.580;2023-08-24T02:14:00;16.80;99.90
4279;DHT22;2153;47.744;10.580;2023-08-24T02:16:28;16.80;99.90
4279;DHT22;2153;47.744;10.580;2023-08-24T02:18:55;16.70;99.90
4279;DHT22;2153;47.744;10.580;2023-08-24T02:21:22;16.70;99.90
4279;DHT22;2153;47.744;10.580;2023-08-24T02:23:49;16.70;99.90
4279;DHT22;2153;47.744;10.580;2023-08-24T02:26:15;16.70;99.90
4279;DHT22;2153;47.744;10.580;2023-08-24T02:28:42;16.60;99.90
4279;DHT22;2153;47.744;10.580;2023-08-24T02:31:09;16.60;99.90
4279;DHT22;2153;47.744;10.580;2023-08-24T02:33:37;16.50;99.90
4279;DHT22;2153;47.744;10.580;2023-08-24T02:36:04;16.50;99.90
4279;DHT22;2153;47.744;10.580;2023-08-24T02:38:30;16.60;99.90
4279;DHT22;2153;47.744;10.580;2023-08-24T02:41:01;16.60;99.90
4279;DHT22;2153;47.744;10.580;2023-08-24T02:43:28;16.60;99.90
4279;DHT22;2153;47.744;10.580;2023-08-24T02:46:02;16.60;99.90
4279;DHT22;2153;47.744;10.580;2023-08-24T02:48:29;16.60;99.90
4279;DHT22;2153;47.744;10.580;2023-08-24T02:50:59;16.60;99.90
4279;DHT22;2153;47.744;10.580;2023-08-24T02:53:26;16.60;99.90
4279;DHT22;2153;47.744;10.580;2023-08-24T02:55:54;16.50;99.90
4279;DHT22;2153;47.744;10.580;2023-08-24T02:58:20;16.50;99.90
4279;DHT22;2153;47.744;10.580;2023-08-24T03:00:47;16.40;99.90
4279;DHT22;2153;47.744;10.580;2023-08-24T03:03:14;16.40;99.90
4279;DHT22;2153;47.744;10.580;2023-08-24T03:05:41;16.50;99.90
4279;DHT22;2153;47.744;10.580;2023-08-24T03:08:09;16.40;99.90
4279;DHT22;2153;47.744;10.580;2023-08-24T03:10:35;16.40;99.90
4279;DHT22;2153;47.744;10.580;2023-08-24T03:13:02;16.40;99.90
4279;DHT22;2153;47.744;10.580;2023-08-24T03:15:29;16.40;99.90
4279;DHT22;2153;47.744;10.580;2023-08-24T03:17:56;16.40;99.90
4279;DHT22;2153;47.744;10.580;2023-08-24T03:20:23;16.30;99.90
4279;DHT22;2153;47.744;10.580;2023-08-24T03:22:49;16.10;99.90
4279;DHT22;2153;47.744;10.580;2023-08-24T03:25:17;16.00;99.90
4279;DHT22;2153;47.744;10.580;2023-08-24T03:27:44;16.00;99.90
4279;DHT22;2153;47.744;10.580;2023-08-24T03:30:11;16.00;99.90
4279;DHT22;2153;47.744;10.580;2023-08-24T03:32:39;16.10;99.90
4279;DHT22;2153;47.744;10.580;2023-08-24T03:35:07;16.10;99.90
4279;DHT22;2153;47.744;10.580;2023-08-24T03:37:33;16.10;99.90
4279;DHT22;2153;47.744;10.580;2023-08-24T03:40:00;16.00;99.90
4279;DHT22;2153;47.744;10.580;2023-08-24T03:42:29;16.00;99.90
4279;DHT22;2153;47.744;10.580;2023-08-24T03:44:56;16.10;99.90
4279;DHT22;2153;47.744;10.580;2023-08-24T03:47:25;16.10;99.90
4279;DHT22;2153;47.744;10.580;2023-08-24T03:49:52;16.10;99.90
4279;DHT22;2153;47.744;10.580;2023-08-24T03:52:18;16.10;99.90
4279;DHT22;2153;47.744;10.580;2023-08-24T03:54:45;16.00;99.90
4279;DHT22;2153;47.744;10.580;2023-08-24T03:57:13;16.00;99.90
4279;DHT22;2153;47.744;10.580;2023-08-24T03:59:42;15.90;99.90
4279;DHT22;2153;47.744;10.580;2023-08-24T04:02:08;15.80;99.90
4279;DHT22;2153;47.744;10.580;2023-08-24T04:04:35;15.80;99.90
4279;DHT22;2153;47.744;10.580;2023-08-24T04:07:02;15.80;99.90
4279;DHT22;2153;47.744;10.580;2023-08-24T04:09:28;15.80;99.90
4279;DHT22;2153;47.744;10.580;2023-08-24T04:11:55;15.80;99.90
4279;DHT22;2153;47.744;10.580;2023-08-24T04:14:22;15.70;99.90
4279;DHT22;2153;47.744;10.580;2023-08-24T04:16:50;15.70;99.90
4279;DHT22;2153;47.744;10.580;2023-08-24T04:19:17;15.60;99.90
4279;DHT22;2153;47.744;10.580;2023-08-24T04:21:44;15.50;99.90
4279;DHT22;2153;47.744;10.580;2023-08-24T04:24:11;15.40;99.90
4279;DHT22;2153;47.744;10.580;2023-08-24T04:26:37;15.40;99.90
4279;DHT22;2153;47.744;10.580;2023-08-24T04:29:04;15.40;99.90
4279;DHT22;2153;47.744;10.580;2023-08-24T04:31:31;15.40;99.90
4279;DHT22;2153;47.744;10.580;2023-08-24T04:33:59;15.50;99.90
4279;DHT22;2153;47.744;10.580;2023-08-24T04:36:25;15.50;99.90
4279;DHT22;2153;47.744;10.580;2023-08-24T04:38:52;15.50;99.90
4279;DHT22;2153;47.744;10.580;2023-08-24T04:41:19;15.50;99.90
4279;DHT22;2153;47.744;10.580;2023-08-24T04:43:46;15.60;99.90
4279;DHT22;2153;47.744;10.580;2023-08-24T04:46:12;15.60;99.90
4279;DHT22;2153;47.744;10.580;2023-08-24T04:48:39;15.60;99.90
4279;DHT22;2153;47.744;10.580;2023-08-24T04:51:07;15.60;99.90
4279;DHT22;2153;47.744;10.580;2023-08-24T04:53:34;15.50;99.90
4279;DHT22;2153;47.744;10.580;2023-08-24T04:56:01;15.50;99.90
4279;DHT22;2153;47.744;10.580;2023-08-24T04:58:27;15.50;99.90
4279;DHT22;2153;47.744;10.580;2023-08-24T05:00:54;15.60;99.90
4279;DHT22;2153;47.744;10.580;2023-08-24T05:03:21;15.60;99.90
4279;DHT22;2153;47.744;10.580;2023-08-24T05:05:48;15.60;99.90
4279;DHT22;2153;47.744;10.580;2023-08-24T05:08:16;15.60;99.90
4279;DHT22;2153;47.744;10.580;2023-08-24T05:10:43;15.60;99.90
4279;DHT22;2153;47.744;10.580;2023-08-24T05:13:10;15.60;99.90
4279;DHT22;2153;47.744;10.580;2023-08-24T05:15:37;15.80;99.90
4279;DHT22;2153;47.744;10.580;2023-08-24T05:18:04;15.80;99.90
4279;DHT22;2153;47.744;10.580;2023-08-24T05:20:31;15.90;99.90
4279;DHT22;2153;47.744;10.580;2023-08-24T05:22:57;15.90;99.90
4279;DHT22;2153;47.744;10.580;2023-08-24T05:25:26;16.00;99.90
4279;DHT22;2153;47.744;10.580;2023-08-24T05:27:53;16.10;99.90
4279;DHT22;2153;47.744;10.580;2023-08-24T05:30:19;16.30;99.90
4279;DHT22;2153;47.744;10.580;2023-08-24T05:32:46;16.40;99.90
4279;DHT22;2153;47.744;10.580;2023-08-24T05:35:13;16.40;99.90
4279;DHT22;2153;47.744;10.580;2023-08-24T05:37:40;16.50;99.90
4279;DHT22;2153;47.744;10.580;2023-08-24T05:40:07;16.60;99.90
4279;DHT22;2153;47.744;10.580;2023-08-24T05:42:35;16.70;99.90
4279;DHT22;2153;47.744;10.580;2023-08-24T05:45:03;16.80;99.90
4279;DHT22;2153;47.744;10.580;2023-08-24T05:47:30;17.00;99.90
4279;DHT22;2153;47.744;10.580;2023-08-24T05:49:56;17.20;99.90
4279;DHT22;2153;47.744;10.580;2023-08-24T05:52:23;17.40;99.90
4279;DHT22;2153;47.744;10.580;2023-08-24T05:54:50;17.50;99.90
4279;DHT22;2153;47.744;10.580;2023-08-24T05:57:16;17.70;99.90
4279;DHT22;2153;47.744;10.580;2023-08-24T05:59:44;17.90;99.90
4279;DHT22;2153;47.744;10.580;2023-08-24T06:02:11;18.20;99.90
4279;DHT22;2153;47.744;10.580;2023-08-24T06:04:38;18.40;99.90
4279;DHT22;2153;47.744;10.580;2023-08-24T06:07:04;18.70;99.90
4279;DHT22;2153;47.744;10.580;2023-08-24T06:09:31;19.00;99.90
4279;DHT22;2153;47.744;10.580;2023-08-24T06:11:58;19.20;99.90
4279;DHT22;2153;47.744;10.580;2023-08-24T06:14:24;19.40;99.90
4279;DHT22;2153;47.744;10.580;2023-08-24T06:16:52;19.50;99.90
4279;DHT22;2153;47.744;10.580;2023-08-24T06:19:19;19.50;99.90
4279;DHT22;2153;47.744;10.580;2023-08-24T06:21:46;19.50;99.90
4279;DHT22;2153;47.744;10.580;2023-08-24T06:24:13;19.60;99.90
4279;DHT22;2153;47.744;10.580;2023-08-24T06:26:39;19.90;99.90
4279;DHT22;2153;47.744;10.580;2023-08-24T06:29:06;20.30;99.90
4279;DHT22;2153;47.744;10.580;2023-08-24T06:31:33;20.80;99.90
4279;DHT22;2153;47.744;10.580;2023-08-24T06:34:01;21.00;99.90
4279;DHT22;2153;47.744;10.580;2023-08-24T06:36:27;21.10;99.90
4279;DHT22;2153;47.744;10.580;2023-08-24T06:38:55;21.20;99.90
4279;DHT22;2153;47.744;10.580;2023-08-24T06:41:21;21.50;99.90
4279;DHT22;2153;47.744;10.580;2023-08-24T06:43:48;21.80;99.90
4279;DHT22;2153;47.744;10.580;2023-08-24T06:46:15;21.80;99.90
4279;DHT22;2153;47.744;10.580;2023-08-24T06:48:41;21.70;99.90
4279;DHT22;2153;47.744;10.580;2023-08-24T06:51:10;21.70;99.90
4279;DHT22;2153;47.744;10.580;2023-08-24T06:53:37;21.80;99.90
4279;DHT22;2153;47.744;10.580;2023-08-24T06:56:04;22.00;99.90
4279;DHT22;2153;47.744;10.580;2023-08-24T06:58:30;22.30;99.90
4279;DHT22;2153;47.744;10.580;2023-08-24T07:00:57;22.50;99.90
4279;DHT22;2153;47.744;10.580;2023-08-24T07:03:24;22.50;99.90
4279;DHT22;2153;47.744;10.580;2023-08-24T07:05:50;22.60;99.90
4279;DHT22;2153;47.744;10.580;2023-08-24T07:08:18;22.80;99.90
4279;DHT22;2153;47.744;10.580;2023-08-24T07:10:45;23.10;99.90
4279;DHT22;2153;47.744;10.580;2023-08-24T07:13:12;23.30;99.90
4279;DHT22;2153;47.744;10.580;2023-08-24T07:15:38;23.40;99.90
4279;DHT22;2153;47.744;10.580;2023-08-24T07:18:05;23.60;99.90
4279;DHT22;2153;47.744;10.580;2023-08-24T07:20:33;23.90;99.90
4279;DHT22;2153;47.744;10.580;2023-08-24T07:23:00;24.00;99.90
4279;DHT22;2153;47.744;10.580;2023-08-24T07:25:28;24.30;99.90
4279;DHT22;2153;47.744;10.580;2023-08-24T07:27:54;24.50;99.90
4279;DHT22;2153;47.744;10.580;2023-08-24T07:30:23;24.90;99.90
4279;DHT22;2153;47.744;10.580;2023-08-24T07:32:50;25.30;99.90
4279;DHT22;2153;47.744;10.580;2023-08-24T07:35:17;25.30;99.90
4279;DHT22;2153;47.744;10.580;2023-08-24T07:37:45;25.70;99.90
4279;DHT22;2153;47.744;10.580;2023-08-24T07:40:13;25.90;99.90
4279;DHT22;2153;47.744;10.580;2023-08-24T07:42:45;26.20;99.90
4279;DHT22;2153;47.744;10.580;2023-08-24T07:45:12;26.30;99.90
4279;DHT22;2153;47.744;10.580;2023-08-24T07:47:39;26.60;99.90
4279;DHT22;2153;47.744;10.580;2023-08-24T07:50:07;26.60;99.90
4279;DHT22;2153;47.744;10.580;2023-08-24T07:52:34;27.10;99.90
4279;DHT22;2153;47.744;10.580;2023-08-24T07:55:00;27.20;99.90
4279;DHT22;2153;47.744;10.580;2023-08-24T07:57:29;27.30;99.90
4279;DHT22;2153;47.744;10.580;2023-08-24T07:59:59;27.20;99.90
4279;DHT22;2153;47.744;10.580;2023-08-24T08:02:26;27.50;99.90
4279;DHT22;2153;47.744;10.580;2023-08-24T08:04:56;27.70;99.90
4279;DHT22;2153;47.744;10.580;2023-08-24T08:07:24;27.70;99.90
4279;DHT22;2153;47.744;10.580;2023-08-24T08:09:50;27.90;99.90
4279;DHT22;2153;47.744;10.580;2023-08-24T08:12:17;28.00;99.90
4279;DHT22;2153;47.744;10.580;2023-08-24T08:14:44;28.30;99.90
4279;DHT22;2153;47.744;10.580;2023-08-24T08:17:12;28.50;99.90
4279;DHT22;2153;47.744;10.580;2023-08-24T08:19:38;28.70;99.90
4279;DHT22;2153;47.744;10.580;2023-08-24T08:22:05;28.60;99.80
4279;DHT22;2153;47.744;10.580;2023-08-24T08:24:32;28.70;99.90
4279;DHT22;2153;47.744;10.580;2023-08-24T08:26:58;28.90;99.90
4279;DHT22;2153;47.744;10.580;2023-08-24T08:29:25;29.20;99.90
4279;DHT22;2153;47.744;10.580;2023-08-24T08:31:52;29.40;98.00
4279;DHT22;2153;47.744;10.580;2023-08-24T08:34:20;29.40;99.90
4279;DHT22;2153;47.744;10.580;2023-08-24T08:36:46;29.40;98.90
4279;DHT22;2153;47.744;10.580;2023-08-24T08:39:13;29.30;99.60
4279;DHT22;2153;47.744;10.580;2023-08-24T08:41:42;29.60;99.90
4279;DHT22;2153;47.744;10.580;2023-08-24T08:44:11;30.10;99.90
4279;DHT22;2153;47.744;10.580;2023-08-24T08:46:39;30.50;99.90
4279;DHT22;2153;47.744;10.580;2023-08-24T08:49:07;30.80;99.90
4279;DHT22;2153;47.744;10.580;2023-08-24T08:51:36;30.80;99.40
4279;DHT22;2153;47.744;10.580;2023-08-24T08:54:03;30.90;99.90
4279;DHT22;2153;47.744;10.580;2023-08-24T08:56:31;31.20;99.90
4279;DHT22;2153;47.744;10.580;2023-08-24T08:58:58;31.50;99.90
4279;DHT22;2153;47.744;10.580;2023-08-24T09:01:26;31.80;98.40
4279;DHT22;2153;47.744;10.580;2023-08-24T09:03:53;31.70;95.80
4279;DHT22;2153;47.744;10.580;2023-08-24T09:06:20;31.50;70.10
4279;DHT22;2153;47.744;10.580;2023-08-24T09:08:49;30.90;98.40
4279;DHT22;2153;47.744;10.580;2023-08-24T09:11:17;30.80;83.90
4279;DHT22;2153;47.744;10.580;2023-08-24T09:13:44;30.40;76.70
4279;DHT22;2153;47.744;10.580;2023-08-24T09:16:10;30.30;78.90
4279;DHT22;2153;47.744;10.580;2023-08-24T09:18:43;30.50;99.90
4279;DHT22;2153;47.744;10.580;2023-08-24T09:21:11;30.80;93.50
4279;DHT22;2153;47.744;10.580;2023-08-24T09:23:38;31.20;86.90
4279;DHT22;2153;47.744;10.580;2023-08-24T09:26:10;30.80;65.40
4279;DHT22;2153;47.744;10.580;2023-08-24T09:28:37;30.80;78.20
4279;DHT22;2153;47.744;10.580;2023-08-24T09:31:06;31.00;82.20
4279;DHT22;2153;47.744;10.580;2023-08-24T09:33:32;31.10;57.10
4279;DHT22;2153;47.744;10.580;2023-08-24T09:35:59;30.70;61.70
4279;DHT22;2153;47.744;10.580;2023-08-24T09:38:29;30.90;85.50
4279;DHT22;2153;47.744;10.580;2023-08-24T09:40:56;31.30;70.30
4279;DHT22;2153;47.744;10.580;2023-08-24T09:43:24;31.70;46.40
4279;DHT22;2153;47.744;10.580;2023-08-24T09:45:52;31.50;42.00
4279;DHT22;2153;47.744;10.580;2023-08-24T09:48:20;31.70;51.30
4279;DHT22;2153;47.744;10.580;2023-08-24T09:50:48;32.10;62.90
4279;DHT22;2153;47.744;10.580;2023-08-24T09:53:16;32.10;47.40
4279;DHT22;2153;47.744;10.580;2023-08-24T09:55:46;31.60;64.60
4279;DHT22;2153;47.744;10.580;2023-08-24T09:58:15;31.20;60.90
4279;DHT22;2153;47.744;10.580;2023-08-24T10:00:45;31.40;79.00
4279;DHT22;2153;47.744;10.580;2023-08-24T10:03:14;30.90;23.10
4279;DHT22;2153;47.744;10.580;2023-08-24T10:05:44;31.20;21.40
4279;DHT22;2153;47.744;10.580;2023-08-24T10:08:12;31.20;21.30
4279;DHT22;2153;47.744;10.580;2023-08-24T10:10:41;31.60;59.80
4279;DHT22;2153;47.744;10.580;2023-08-24T10:13:14;31.50;13.20
4279;DHT22;2153;47.744;10.580;2023-08-24T10:15:46;32.10;19.50
4279;DHT22;2153;47.744;10.580;2023-08-24T10:18:15;32.30;12.70
4279;DHT22;2153;47.744;10.580;2023-08-24T10:20:42;32.30;27.20
4279;DHT22;2153;47.744;10.580;2023-08-24T10:23:10;32.00;8.80
4279;DHT22;2153;47.744;10.580;2023-08-24T10:25:37;32.00;1.00
4279;DHT22;2153;47.744;10.580;2023-08-24T10:28:05;31.80;1.00
4279;DHT22;2153;47.744;10.580;2023-08-24T10:30:32;32.20;1.00
4279;DHT22;2153;47.744;10.580;2023-08-24T10:33:02;32.30;1.00
4279;DHT22;2153;47.744;10.580;2023-08-24T10:35:29;32.50;1.00
4279;DHT22;2153;47.744;10.580;2023-08-24T10:37:58;32.10;1.00
4279;DHT22;2153;47.744;10.580;2023-08-24T10:40:31;32.00;1.00
4279;DHT22;2153;47.744;10.580;2023-08-24T10:43:02;32.20;1.00
4279;DHT22;2153;47.744;10.580;2023-08-24T10:45:54;32.50;1.00
4279;DHT22;2153;47.744;10.580;2023-08-24T10:48:23;32.90;1.00
4279;DHT22;2153;47.744;10.580;2023-08-24T10:51:18;33.80;1.00
4279;DHT22;2153;47.744;10.580;2023-08-24T10:53:47;34.10;1.00
4279;DHT22;2153;47.744;10.580;2023-08-24T10:56:15;34.40;1.00
4279;DHT22;2153;47.744;10.580;2023-08-24T10:58:43;34.80;1.00
4279;DHT22;2153;47.744;10.580;2023-08-24T11:01:15;34.80;1.00
4279;DHT22;2153;47.744;10.580;2023-08-24T11:03:49;34.10;1.00
4279;DHT22;2153;47.744;10.580;2023-08-24T11:06:21;34.10;1.00
4279;DHT22;2153;47.744;10.580;2023-08-24T11:08:48;34.10;1.00
4279;DHT22;2153;47.744;10.580;2023-08-24T11:11:19;33.70;1.00
4279;DHT22;2153;47.744;10.580;2023-08-24T11:14:13;34.10;1.00
4279;DHT22;2153;47.744;10.580;2023-08-24T11:16:44;33.80;1.00
4279;DHT22;2153;47.744;10.580;2023-08-24T11:19:13;34.00;1.00
4279;DHT22;2153;47.744;10.580;2023-08-24T11:21:41;34.50;1.00
4279;DHT22;2153;47.744;10.580;2023-08-24T11:24:09;35.00;1.00
4279;DHT22;2153;47.744;10.580;2023-08-24T11:26:40;34.90;1.00
4279;DHT22;2153;47.744;10.580;2023-08-24T11:29:07;34.60;1.00
4279;DHT22;2153;47.744;10.580;2023-08-24T11:31:34;34.60;1.00
4279;DHT22;2153;47.744;10.580;2023-08-24T11:34:01;34.60;1.00
4279;DHT22;2153;47.744;10.580;2023-08-24T11:36:31;34.50;1.00
4279;DHT22;2153;47.744;10.580;2023-08-24T11:38:59;34.70;1.00
4279;DHT22;2153;47.744;10.580;2023-08-24T11:41:26;34.70;1.00
4279;DHT22;2153;47.744;10.580;2023-08-24T11:44:02;34.50;1.00
4279;DHT22;2153;47.744;10.580;2023-08-24T11:46:29;34.70;1.00
4279;DHT22;2153;47.744;10.580;2023-08-24T11:48:57;34.90;1.00
4279;DHT22;2153;47.744;10.580;2023-08-24T11:51:25;34.00;1.00
4279;DHT22;2153;47.744;10.580;2023-08-24T11:53:53;34.20;1.00
4279;DHT22;2153;47.744;10.580;2023-08-24T11:56:20;34.30;1.00
4279;DHT22;2153;47.744;10.580;2023-08-24T11:58:48;34.10;1.00
4279;DHT22;2153;47.744;10.580;2023-08-24T12:01:17;34.20;1.00
4279;DHT22;2153;47.744;10.580;2023-08-24T12:03:43;34.60;1.00
4279;DHT22;2153;47.744;10.580;2023-08-24T12:06:11;34.80;1.00
4279;DHT22;2153;47.744;10.580;2023-08-24T12:08:39;35.00;1.00
4279;DHT22;2153;47.744;10.580;2023-08-24T12:11:12;35.40;1.00
4279;DHT22;2153;47.744;10.580;2023-08-24T12:13:43;35.80;1.00
4279;DHT22;2153;47.744;10.580;2023-08-24T12:16:10;35.70;1.00
4279;DHT22;2153;47.744;10.580;2023-08-24T12:18:46;35.50;1.00
4279;DHT22;2153;47.744;10.580;2023-08-24T12:21:13;34.80;1.00
4279;DHT22;2153;47.744;10.580;2023-08-24T12:23:40;34.40;1.00
4279;DHT22;2153;47.744;10.580;2023-08-24T12:26:07;34.20;1.00
4279;DHT22;2153;47.744;10.580;2023-08-24T12:28:35;34.20;1.00
4279;DHT22;2153;47.744;10.580;2023-08-24T12:31:02;34.70;1.00
4279;DHT22;2153;47.744;10.580;2023-08-24T12:33:30;35.00;1.00
4279;DHT22;2153;47.744;10.580;2023-08-24T12:35:58;35.00;1.00
4279;DHT22;2153;47.744;10.580;2023-08-24T12:38:25;35.50;1.00
4279;DHT22;2153;47.744;10.580;2023-08-24T12:40:53;35.70;1.00
4279;DHT22;2153;47.744;10.580;2023-08-24T12:43:20;36.00;1.00
4279;DHT22;2153;47.744;10.580;2023-08-24T12:45:48;36.40;1.00
4279;DHT22;2153;47.744;10.580;2023-08-24T12:48:15;36.50;1.00
4279;DHT22;2153;47.744;10.580;2023-08-24T12:50:42;36.50;1.00
4279;DHT22;2153;47.744;10.580;2023-08-24T12:53:09;36.50;1.00
4279;DHT22;2153;47.744;10.580;2023-08-24T12:55:37;36.60;1.00
4279;DHT22;2153;47.744;10.580;2023-08-24T12:58:05;36.90;1.00
4279;DHT22;2153;47.744;10.580;2023-08-24T13:00:32;36.80;1.00
4279;DHT22;2153;47.744;10.580;2023-08-24T13:03:00;36.40;1.00
4279;DHT22;2153;47.744;10.580;2023-08-24T13:05:26;36.30;1.00
4279;DHT22;2153;47.744;10.580;2023-08-24T13:07:53;36.20;1.00
4279;DHT22;2153;47.744;10.580;2023-08-24T13:10:20;36.20;1.00
4279;DHT22;2153;47.744;10.580;2023-08-24T13:12:47;36.20;1.00
4279;DHT22;2153;47.744;10.580;2023-08-24T13:15:14;36.00;1.00
4279;DHT22;2153;47.744;10.580;2023-08-24T13:17:41;36.00;1.00
4279;DHT22;2153;47.744;10.580;2023-08-24T13:20:10;36.10;1.00
4279;DHT22;2153;47.744;10.580;2023-08-24T13:22:36;36.10;1.00
4279;DHT22;2153;47.744;10.580;2023-08-24T13:25:03;35.90;1.00
4279;DHT22;2153;47.744;10.580;2023-08-24T13:27:31;35.90;1.00
4279;DHT22;2153;47.744;10.580;2023-08-24T13:30:00;36.00;1.00
4279;DHT22;2153;47.744;10.580;2023-08-24T13:32:27;36.10;1.00
4279;DHT22;2153;47.744;10.580;2023-08-24T13:34:54;35.90;1.00
4279;DHT22;2153;47.744;10.580;2023-08-24T13:37:22;35.80;1.00
4279;DHT22;2153;47.744;10.580;2023-08-24T13:39:49;35.80;1.00
4279;DHT22;2153;47.744;10.580;2023-08-24T13:42:16;35.80;1.00
4279;DHT22;2153;47.744;10.580;2023-08-24T13:44:44;35.70;1.00
4279;DHT22;2153;47.744;10.580;2023-08-24T13:47:11;35.90;1.00
4279;DHT22;2153;47.744;10.580;2023-08-24T13:49:37;35.90;1.00
4279;DHT22;2153;47.744;10.580;2023-08-24T13:52:04;35.90;1.00
4279;DHT22;2153;47.744;10.580;2023-08-24T13:54:32;36.00;1.00
4279;DHT22;2153;47.744;10.580;2023-08-24T13:56:59;35.90;1.00
4279;DHT22;2153;47.744;10.580;2023-08-24T13:59:27;36.00;1.00
4279;DHT22;2153;47.744;10.580;2023-08-24T14:01:54;36.20;1.00
4279;DHT22;2153;47.744;10.580;2023-08-24T14:04:20;36.00;1.00
4279;DHT22;2153;47.744;10.580;2023-08-24T14:06:47;35.90;1.00
4279;DHT22;2153;47.744;10.580;2023-08-24T14:09:14;35.80;1.00
4279;DHT22;2153;47.744;10.580;2023-08-24T14:11:42;35.60;1.00
4279;DHT22;2153;47.744;10.580;2023-08-24T14:14:09;35.60;1.00
4279;DHT22;2153;47.744;10.580;2023-08-24T14:16:36;35.90;1.00
4279;DHT22;2153;47.744;10.580;2023-08-24T14:19:03;36.10;1.00
4279;DHT22;2153;47.744;10.580;2023-08-24T14:21:29;36.10;1.00
4279;DHT22;2153;47.744;10.580;2023-08-24T14:23:56;36.00;1.00
4279;DHT22;2153;47.744;10.580;2023-08-24T14:26:23;35.80;1.00
4279;DHT22;2153;47.744;10.580;2023-08-24T14:28:53;35.60;1.00
4279;DHT22;2153;47.744;10.580;2023-08-24T14:31:20;35.50;1.00
4279;DHT22;2153;47.744;10.580;2023-08-24T14:33:47;35.50;1.00
4279;DHT22;2153;47.744;10.580;2023-08-24T14:36:14;35.40;1.00
4279;DHT22;2153;47.744;10.580;2023-08-24T14:38:41;35.20;1.00
4279;DHT22;2153;47.744;10.580;2023-08-24T14:41:08;35.20;1.00
4279;DHT22;2153;47.744;10.580;2023-08-24T14:43:36;35.20;1.00
4279;DHT22;2153;47.744;10.580;2023-08-24T14:46:04;35.10;1.00
4279;DHT22;2153;47.744;10.580;2023-08-24T14:48:30;34.90;1.00
4279;DHT22;2153;47.744;10.580;2023-08-24T14:50:57;34.90;1.00
4279;DHT22;2153;47.744;10.580;2023-08-24T14:53:24;34.80;1.00
4279;DHT22;2153;47.744;10.580;2023-08-24T14:55:52;34.80;1.00
4279;DHT22;2153;47.744;10.580;2023-08-24T14:58:19;34.80;1.00
4279;DHT22;2153;47.744;10.580;2023-08-24T15:00:46;34.70;1.00
4279;DHT22;2153;47.744;10.580;2023-08-24T15:03:14;34.70;1.00
4279;DHT22;2153;47.744;10.580;2023-08-24T15:05:43;34.70;1.00
4279;DHT22;2153;47.744;10.580;2023-08-24T15:08:10;34.70;1.00
4279;DHT22;2153;47.744;10.580;2023-08-24T15:10:37;34.70;1.00
4279;DHT22;2153;47.744;10.580;2023-08-24T15:13:04;34.60;1.00
4279;DHT22;2153;47.744;10.580;2023-08-24T15:15:30;34.60;1.00
4279;DHT22;2153;47.744;10.580;2023-08-24T15:17:57;34.50;1.00
4279;DHT22;2153;47.744;10.580;2023-08-24T15:20:25;34.30;1.00
4279;DHT22;2153;47.744;10.580;2023-08-24T15:22:52;34.30;1.00
4279;DHT22;2153;47.744;10.580;2023-08-24T15:25:18;34.30;1.00
4279;DHT22;2153;47.744;10.580;2023-08-24T15:27:47;34.20;1.00
4279;DHT22;2153;47.744;10.580;2023-08-24T15:30:13;33.90;1.00
4279;DHT22;2153;47.744;10.580;2023-08-24T15:32:40;33.60;1.00
4279;DHT22;2153;47.744;10.580;2023-08-24T15:35:07;33.40;1.00
4279;DHT22;2153;47.744;10.580;2023-08-24T15:37:35;33.30;1.00
4279;DHT22;2153;47.744;10.580;2023-08-24T15:40:03;33.10;1.00
4279;DHT22;2153;47.744;10.580;2023-08-24T15:42:30;32.90;1.00
4279;DHT22;2153;47.744;10.580;2023-08-24T15:44:56;32.70;1.00
4279;DHT22;2153;47.744;10.580;2023-08-24T15:47:23;32.60;1.00
4279;DHT22;2153;47.744;10.580;2023-08-24T15:49:50;32.50;1.00
4279;DHT22;2153;47.744;10.580;2023-08-24T15:52:17;32.40;1.00
4279;DHT22;2153;47.744;10.580;2023-08-24T15:54:45;32.20;1.00